Houghton County Memorial Airport
KCMX : rendu visible

Aérodrome :











RETROUVEZ-NOUS SUR...

 
LOGIN :

S'inscrire | Disclaimer

   EN    FR    IT 

 









Légende :    VFR   VFR Marginal   IFR   IFR Intensif   IFR Très Intensif
Visi : 
Plafond : 
>= 8 km
>= 3000ft
5 à 8 km
1000 à 3000 ft
1500m à 5 km
500 à 1000 ft
800 à 1500m
200 à 500 ft
< 800m
< 200 ft
Symboles :   Orages  Brouillard  Fortes neiges  Fortes précipitations  Vent > 20 kt






- Altitude de l'aérodrome : 1095 ft
- Code IATA : CMX


KCMX - Houghton County Memorial

DERNIER METAR :
  • 121810Z AUTO 29013KT 9SM -SN BKN027 OVC032 M09/M14 A3029 RMK AO2 P0000 T10891144

METARs EXPIRÉS :
  • 121753Z AUTO 31014KT 4SM -SN SCT025 OVC035 M09/M14 A3030 RMK AO2 SLP285 P0000 60000 T10891139 11089 21117 58006
  • 121744Z AUTO 31013KT 8SM -SN FEW021 SCT028 OVC037 M09/M14 A3031 RMK AO2 P0000 T10941139
  • 121736Z AUTO 30012KT 3SM -SN FEW021 BKN028 OVC035 M09/M14 A3031 RMK AO2 P0000 T10941139
  • 121717Z AUTO 30013KT 2 1/2SM -SN BKN028 OVC035 M09/M14 A3032 RMK AO2 VIS 1 1/2V4 P0000 T10941139
  • 121653Z AUTO 30014KT 2SM -SN FEW016 BKN022 OVC029 M09/M14 A3033 RMK AO2 SLP294 P0000 T10941139
  • 121642Z AUTO 31015KT 3SM -SN BKN022 OVC028 M09/M14 A3032 RMK AO2 P0000 T10941139
  • 121614Z AUTO 32014KT 1SM -SN BKN015 BKN028 OVC033 M10/M14 A3032 RMK AO2 P0000 T11001139
  • 121606Z AUTO 31013KT 3/4SM -SN BKN011 BKN018 OVC033 M10/M13 A3032 RMK AO2 P0000 T11001133
  • 121548Z AUTO 31014KT 1/4SM +SN BKN014 BKN021 OVC029 M10/M13 A3032 RMK AO2 P0000

TAF KCMX
Valide du 12 à 18h jusqu'au 13 à 18h UTC


121720Z 1218/1318 30015KT 2SM -SHSN SCT015 BKN022
FM122300 22006KT P6SM SCT040
FM130100 17006KT P6SM SCT220
FM131100 18011G22KT P6SM BKN100
FM131500 20014G22KT P6SM VCSH OVC024



MET'MAP, la Météo Aéronautique d'un coup d'oeil ! - Copyright ORBIFLY Décembre 2007 - Disclaimer

ORBIFLY MET'MAP TEAM :

Programmation & Développement : Alexandra Zaïnal
Conception & Développement : Baudouin d'Aumeries
Co-Programmation & Développement : Marc-Olivier Méhu
Soutien technique & logistique : Manuel Goepfert

Contact : metmap@orbifly.com




SOURCES & CREDITS :

   NOAA       Earth
Advisory